Time,TemperatureF,DewpointF,PressureIn,WindDirection,WindDirectionDegrees,WindSpeedMPH,WindSpeedGustMPH,Humidity,HourlyPrecipIn,Conditions,Clouds,dailyrainin,SoftwareType,DateUTC
2013-04-20 00:02:00,37.0,26.0,29.17,WNW,292,5.8,5.8,64,0.00,,---,0.00,VWS V14.01,2013-04-20 05:02:00,
2013-04-20 00:07:00,36.9,25.8,29.17,WNW,292,3.1,3.1,64,0.00,,---,0.00,VWS V14.01,2013-04-20 05:07:00,
2013-04-20 00:13:00,36.9,25.1,29.17,West,270,3.8,3.8,62,0.00,,---,0.00,VWS V14.01,2013-04-20 05:13:00,
2013-04-20 00:18:00,36.7,25.3,29.20,West,270,5.8,5.8,63,0.00,,---,0.00,VWS V14.01,2013-04-20 05:18:00,
2013-04-20 00:23:00,36.7,24.9,29.20,West,270,5.6,7.4,62,0.00,,---,0.00,VWS V14.01,2013-04-20 05:23:00,
2013-04-20 00:28:00,36.5,24.7,29.20,SW,225,7.6,7.6,62,0.00,,---,0.00,VWS V14.01,2013-04-20 05:28:00,
2013-04-20 00:33:00,36.5,24.7,29.20,WNW,292,5.8,5.8,62,0.00,,---,0.00,VWS V14.01,2013-04-20 05:33:00,
2013-04-20 00:38:00,36.3,24.6,29.20,West,270,10.3,12.1,62,0.00,,---,0.00,VWS V14.01,2013-04-20 05:38:00,
2013-04-20 00:43:00,36.1,24.4,29.20,NE,45,2.9,2.9,62,0.00,,---,0.00,VWS V14.01,2013-04-20 05:43:00,
2013-04-20 00:48:00,36.1,24.4,29.20,WNW,292,7.4,7.4,62,0.00,,---,0.00,VWS V14.01,2013-04-20 05:48:00,
2013-04-20 00:53:00,35.8,24.0,29.20,West,270,4.9,4.9,62,0.00,,---,0.00,VWS V14.01,2013-04-20 05:53:00,
2013-04-20 00:58:00,35.8,24.0,29.20,WNW,292,3.6,8.1,62,0.00,,---,0.00,VWS V14.01,2013-04-20 05:58:00,
2013-04-20 01:03:00,35.6,23.9,29.20,West,270,4.9,4.9,62,0.00,,---,0.00,VWS V14.01,2013-04-20 06:03:00,
2013-04-20 01:08:00,35.6,24.3,29.20,WNW,292,7.8,7.8,63,0.00,,---,0.00,VWS V14.01,2013-04-20 06:08:00,
2013-04-20 01:13:00,35.6,24.3,29.20,West,270,3.1,4.0,63,0.00,,---,0.00,VWS V14.01,2013-04-20 06:13:00,
2013-04-20 01:18:00,35.6,24.3,29.20,West,270,6.0,6.0,63,0.00,,---,0.00,VWS V14.01,2013-04-20 06:18:00,
2013-04-20 01:23:00,35.4,24.1,29.20,North,0,7.2,7.2,63,0.00,,---,0.00,VWS V14.01,2013-04-20 06:23:00,
2013-04-20 01:28:00,35.4,24.1,29.20,West,270,5.4,5.4,63,0.00,,---,0.00,VWS V14.01,2013-04-20 06:28:00,
2013-04-20 01:33:00,35.2,23.9,29.20,WSW,248,4.9,4.9,63,0.00,,---,0.00,VWS V14.01,2013-04-20 06:33:00,
2013-04-20 01:39:00,35.2,23.9,29.20,WNW,292,4.0,4.3,63,0.00,,---,0.00,VWS V14.01,2013-04-20 06:39:00,
2013-04-20 01:44:00,35.1,23.4,29.20,SW,225,6.0,6.0,62,0.00,,---,0.00,VWS V14.01,2013-04-20 06:44:00,
2013-04-20 01:49:00,35.1,23.8,29.20,West,270,3.4,6.7,63,0.00,,---,0.00,VWS V14.01,2013-04-20 06:49:00,
2013-04-20 01:54:00,34.9,23.6,29.20,West,270,3.4,4.0,63,0.00,,---,0.00,VWS V14.01,2013-04-20 06:54:00,
2013-04-20 01:59:00,34.9,24.0,29.20,North,0,7.4,7.4,64,0.00,,---,0.00,VWS V14.01,2013-04-20 06:59:00,
2013-04-20 02:04:00,34.9,24.0,29.20,West,270,5.8,5.8,64,0.00,,---,0.00,VWS V14.01,2013-04-20 07:04:00,
2013-04-20 02:09:00,34.7,23.8,29.20,WSW,248,2.5,5.8,64,0.00,,---,0.00,VWS V14.01,2013-04-20 07:09:00,
2013-04-20 02:14:00,34.7,23.8,29.20,NNW,338,3.4,6.3,64,0.00,,---,0.00,VWS V14.01,2013-04-20 07:14:00,
2013-04-20 02:19:00,34.5,24.0,29.20,NNW,338,4.9,4.9,65,0.00,,---,0.00,VWS V14.01,2013-04-20 07:19:00,
2013-04-20 02:24:00,34.5,24.0,29.20,WNW,292,4.3,4.3,65,0.00,,---,0.00,VWS V14.01,2013-04-20 07:24:00,
2013-04-20 02:29:00,34.5,24.0,29.20,WNW,292,6.5,6.5,65,0.00,,---,0.00,VWS V14.01,2013-04-20 07:29:00,
2013-04-20 02:34:00,34.3,23.8,29.20,West,270,5.4,5.4,65,0.00,,---,0.00,VWS V14.01,2013-04-20 07:34:00,
2013-04-20 02:40:00,34.3,23.8,29.20,WNW,292,2.0,2.0,65,0.00,,---,0.00,VWS V14.01,2013-04-20 07:40:00,
2013-04-20 02:45:00,34.2,23.6,29.20,West,270,7.4,7.4,65,0.00,,---,0.00,VWS V14.01,2013-04-20 07:45:00,
2013-04-20 02:50:00,34.2,24.0,29.20,WSW,248,6.0,6.0,66,0.00,,---,0.00,VWS V14.01,2013-04-20 07:50:00,
2013-04-20 02:55:00,34.0,23.8,29.20,WSW,248,8.5,8.5,66,0.00,,---,0.00,VWS V14.01,2013-04-20 07:55:00,
2013-04-20 03:00:00,34.0,23.8,29.20,NW,315,5.4,5.6,66,0.00,,---,0.00,VWS V14.01,2013-04-20 08:00:00,
2013-04-20 03:05:00,34.0,23.8,29.20,WSW,248,4.3,5.6,66,0.00,,---,0.00,VWS V14.01,2013-04-20 08:05:00,
2013-04-20 03:10:00,33.8,23.7,29.20,West,270,2.7,2.7,66,0.00,,---,0.00,VWS V14.01,2013-04-20 08:10:00,
2013-04-20 03:15:00,33.8,24.0,29.23,WSW,248,4.0,5.4,67,0.00,,---,0.00,VWS V14.01,2013-04-20 08:15:00,
2013-04-20 03:20:00,33.6,23.9,29.23,WSW,248,3.6,3.6,67,0.00,,---,0.00,VWS V14.01,2013-04-20 08:20:00,
2013-04-20 03:25:00,33.6,24.2,29.23,West,270,3.8,3.8,68,0.00,,---,0.00,VWS V14.01,2013-04-20 08:25:00,
2013-04-20 03:30:00,33.6,24.2,29.23,West,270,5.8,5.8,68,0.00,,---,0.00,VWS V14.01,2013-04-20 08:30:00,
2013-04-20 03:36:00,33.6,24.2,29.23,West,270,2.5,6.0,68,0.00,,---,0.00,VWS V14.01,2013-04-20 08:36:00,
2013-04-20 03:41:00,33.4,24.0,29.23,NNW,338,2.7,6.0,68,0.00,,---,0.00,VWS V14.01,2013-04-20 08:41:00,
2013-04-20 03:46:00,33.4,24.4,29.23,West,270,2.0,4.0,69,0.00,,---,0.00,VWS V14.01,2013-04-20 08:46:00,
2013-04-20 03:51:00,33.3,24.2,29.23,NNW,338,4.9,4.9,69,0.00,,---,0.00,VWS V14.01,2013-04-20 08:51:00,
2013-04-20 03:56:00,33.3,24.2,29.23,West,270,4.9,4.9,69,0.00,,---,0.00,VWS V14.01,2013-04-20 08:56:00,
2013-04-20 04:01:00,33.3,24.2,29.23,WNW,292,3.1,3.6,69,0.00,,---,0.00,VWS V14.01,2013-04-20 09:01:00,
2013-04-20 04:06:00,33.3,24.5,29.23,WNW,292,3.6,3.6,70,0.00,,---,0.00,VWS V14.01,2013-04-20 09:06:00,
2013-04-20 04:11:00,33.1,24.4,29.23,WSW,248,1.3,4.3,70,0.00,,---,0.00,VWS V14.01,2013-04-20 09:11:00,
2013-04-20 04:16:00,33.1,24.4,29.23,West,270,1.1,1.1,70,0.00,,---,0.00,VWS V14.01,2013-04-20 09:16:00,
2013-04-20 04:21:00,33.1,24.4,29.23,WNW,292,3.6,3.6,70,0.00,,---,0.00,VWS V14.01,2013-04-20 09:21:00,
2013-04-20 04:26:00,33.1,24.7,29.23,WNW,292,3.6,3.6,71,0.00,,---,0.00,VWS V14.01,2013-04-20 09:26:00,
2013-04-20 04:32:00,33.1,24.7,29.26,WNW,292,3.1,3.1,71,0.00,,---,0.00,VWS V14.01,2013-04-20 09:32:00,
2013-04-20 04:37:00,32.9,24.5,29.26,WSW,248,3.6,3.6,71,0.00,,---,0.00,VWS V14.01,2013-04-20 09:37:00,
2013-04-20 04:42:00,32.9,24.5,29.26,West,270,3.1,3.8,71,0.00,,---,0.00,VWS V14.01,2013-04-20 09:42:00,
2013-04-20 04:47:00,32.7,24.4,29.26,NNW,338,1.6,1.6,71,0.00,,---,0.00,VWS V14.01,2013-04-20 09:47:00,
2013-04-20 04:52:00,32.7,24.4,29.26,WNW,292,1.1,4.0,71,0.00,,---,0.00,VWS V14.01,2013-04-20 09:52:00,
2013-04-20 04:57:00,32.7,24.7,29.26,West,270,3.4,3.4,72,0.00,,---,0.00,VWS V14.01,2013-04-20 09:57:00,
2013-04-20 05:02:00,32.7,24.7,29.26,West,270,4.0,4.0,72,0.00,,---,0.00,VWS V14.01,2013-04-20 10:02:00,
2013-04-20 05:07:00,32.5,24.5,29.26,WNW,292,2.0,2.5,72,0.00,,---,0.00,VWS V14.01,2013-04-20 10:07:00,
2013-04-20 05:12:00,32.5,24.5,29.26,WNW,292,4.0,4.0,72,0.00,,---,0.00,VWS V14.01,2013-04-20 10:12:00,
2013-04-20 05:17:00,32.5,24.5,29.26,NW,315,2.7,2.7,72,0.00,,---,0.00,VWS V14.01,2013-04-20 10:17:00,
2013-04-20 05:22:00,32.5,24.5,29.26,NNW,338,0.0,0.0,72,0.00,,---,0.00,VWS V14.01,2013-04-20 10:22:00,
2013-04-20 05:27:00,32.5,24.9,29.26,WNW,292,2.5,2.5,73,0.00,,---,0.00,VWS V14.01,2013-04-20 10:27:00,
2013-04-20 05:32:00,32.5,24.9,29.29,NNW,338,1.3,1.3,73,0.00,,---,0.00,VWS V14.01,2013-04-20 10:32:00,
2013-04-20 05:37:00,32.4,24.7,29.29,WSW,248,0.0,2.0,73,0.00,,---,0.00,VWS V14.01,2013-04-20 10:37:00,
2013-04-20 05:42:00,32.2,24.5,29.29,NNW,338,2.5,2.5,73,0.00,,---,0.00,VWS V14.01,2013-04-20 10:42:00,
2013-04-20 05:48:00,32.4,24.7,29.29,NNW,338,0.0,1.6,73,0.00,,---,0.00,VWS V14.01,2013-04-20 10:48:00,
2013-04-20 05:53:00,32.2,24.5,29.29,WNW,292,0.0,1.6,73,0.00,,---,0.00,VWS V14.01,2013-04-20 10:53:00,
2013-04-20 05:58:00,32.2,24.8,29.29,West,270,1.3,1.3,74,0.00,,---,0.00,VWS V14.01,2013-04-20 10:58:00,
2013-04-20 06:03:00,32.2,24.8,29.29,West,270,1.6,2.9,74,0.00,,---,0.00,VWS V14.01,2013-04-20 11:03:00,
2013-04-20 06:08:00,32.2,24.8,29.29,NNW,338,0.9,0.9,74,0.00,,---,0.00,VWS V14.01,2013-04-20 11:08:00,
2013-04-20 06:13:00,32.0,24.7,29.29,West,270,2.2,2.2,74,0.00,,---,0.00,VWS V14.01,2013-04-20 11:13:00,
2013-04-20 06:18:00,32.0,24.7,29.29,West,270,0.0,0.0,74,0.00,,---,0.00,VWS V14.01,2013-04-20 11:18:00,
2013-04-20 06:23:00,32.0,24.7,29.29,West,270,2.5,2.5,74,0.00,,---,0.00,VWS V14.01,2013-04-20 11:23:00,
2013-04-20 06:28:00,32.0,24.7,29.29,NW,315,2.9,2.9,74,0.00,,---,0.00,VWS V14.01,2013-04-20 11:28:00,
2013-04-20 06:33:00,32.2,24.8,29.32,NNW,338,0.0,0.0,74,0.00,,---,0.00,VWS V14.01,2013-04-20 11:33:00,
2013-04-20 06:38:00,32.2,25.2,29.32,West,270,0.9,0.9,75,0.00,,---,0.00,VWS V14.01,2013-04-20 11:38:00,
2013-04-20 06:44:00,32.7,25.7,29.32,West,270,1.3,1.3,75,0.00,,---,0.00,VWS V14.01,2013-04-20 11:44:00,
2013-04-20 06:49:00,33.8,26.7,29.32,West,270,2.0,2.0,75,0.00,,---,0.00,VWS V14.01,2013-04-20 11:49:00,
2013-04-20 06:54:00,34.5,27.4,29.32,NNW,338,1.1,1.1,75,0.00,,---,0.00,VWS V14.01,2013-04-20 11:54:00,
2013-04-20 06:59:00,35.2,28.1,29.32,NNE,22,2.7,2.7,75,0.00,,---,0.00,VWS V14.01,2013-04-20 11:59:00,
2013-04-20 07:04:00,35.8,28.6,29.32,NW,315,1.6,1.6,75,0.00,,---,0.00,VWS V14.01,2013-04-20 12:04:00,
2013-04-20 07:09:00,37.0,29.9,29.32,North,0,0.9,1.3,75,0.00,,---,0.00,VWS V14.01,2013-04-20 12:09:00,
2013-04-20 07:14:00,38.1,30.9,29.32,WSW,248,0.0,0.0,75,0.00,,---,0.00,VWS V14.01,2013-04-20 12:14:00,
2013-04-20 07:19:00,38.5,30.9,29.32,North,0,2.5,2.5,74,0.00,,---,0.00,VWS V14.01,2013-04-20 12:19:00,
2013-04-20 07:24:00,38.7,30.8,29.32,West,270,3.8,3.8,73,0.00,,---,0.00,VWS V14.01,2013-04-20 12:24:00,
2013-04-20 07:29:00,39.2,30.6,29.32,WSW,248,2.5,3.4,71,0.00,,---,0.00,VWS V14.01,2013-04-20 12:29:00,
2013-04-20 07:35:00,39.4,30.4,29.32,WNW,292,1.3,1.3,70,0.00,,---,0.00,VWS V14.01,2013-04-20 12:35:00,
2013-04-20 07:40:00,39.6,30.2,29.32,West,270,4.0,4.0,69,0.00,,---,0.00,VWS V14.01,2013-04-20 12:40:00,
2013-04-20 07:45:00,39.9,30.6,29.35,NW,315,1.6,2.5,69,0.00,,---,0.00,VWS V14.01,2013-04-20 12:45:00,
2013-04-20 07:50:00,39.9,30.2,29.35,West,270,3.6,3.6,68,0.00,,---,0.00,VWS V14.01,2013-04-20 12:50:00,
2013-04-20 07:55:00,40.3,30.6,29.35,WSW,248,5.6,5.6,68,0.00,,---,0.00,VWS V14.01,2013-04-20 12:55:00,
2013-04-20 08:00:00,40.3,30.6,29.35,NNW,338,1.6,1.6,68,0.00,,---,0.00,VWS V14.01,2013-04-20 13:00:00,
2013-04-20 08:05:00,40.6,30.9,29.35,West,270,0.0,1.3,68,0.00,,---,0.00,VWS V14.01,2013-04-20 13:05:00,
2013-04-20 08:10:00,40.8,31.1,29.35,NNW,338,4.0,4.0,68,0.00,,---,0.00,VWS V14.01,2013-04-20 13:10:00,
2013-04-20 08:15:00,41.0,30.9,29.35,NNW,338,3.1,3.1,67,0.00,,---,0.00,VWS V14.01,2013-04-20 13:15:00,
2013-04-20 08:20:00,41.5,31.4,29.35,NNW,338,3.1,3.1,67,0.00,,---,0.00,VWS V14.01,2013-04-20 13:20:00,
2013-04-20 08:25:00,41.7,32.0,29.35,West,270,2.9,5.4,68,0.00,,---,0.00,VWS V14.01,2013-04-20 13:25:00,
2013-04-20 08:30:00,41.7,31.6,29.38,WNW,292,2.7,2.7,67,0.00,,---,0.00,VWS V14.01,2013-04-20 13:30:00,
2013-04-20 08:36:00,42.1,31.9,29.38,West,270,2.5,3.8,67,0.00,,---,0.00,VWS V14.01,2013-04-20 13:36:00,
2013-04-20 08:41:00,42.1,31.6,29.38,SSW,202,0.0,3.1,66,0.00,,---,0.00,VWS V14.01,2013-04-20 13:41:00,
2013-04-20 08:46:00,42.3,32.1,29.38,SSW,202,1.6,3.6,67,0.00,,---,0.00,VWS V14.01,2013-04-20 13:46:00,
2013-04-20 08:51:00,42.4,32.3,29.38,South,180,2.2,2.2,67,0.00,,---,0.00,VWS V14.01,2013-04-20 13:51:00,
2013-04-20 08:56:00,42.4,31.9,29.38,WSW,248,3.6,3.6,66,0.00,,---,0.00,VWS V14.01,2013-04-20 13:56:00,
2013-04-20 09:01:00,43.0,32.4,29.38,SW,225,3.6,3.6,66,0.00,,---,0.00,VWS V14.01,2013-04-20 14:01:00,
2013-04-20 09:06:00,43.2,32.6,29.38,SW,225,2.5,2.5,66,0.00,,---,0.00,VWS V14.01,2013-04-20 14:06:00,
2013-04-20 09:11:00,43.0,32.0,29.38,NNE,22,1.3,1.3,65,0.00,,---,0.00,VWS V14.01,2013-04-20 14:11:00,
2013-04-20 09:16:00,43.0,31.6,29.41,WNW,292,3.1,3.1,64,0.00,,---,0.00,VWS V14.01,2013-04-20 14:16:00,
2013-04-20 09:21:00,43.3,32.0,29.41,North,0,2.7,2.7,64,0.00,,---,0.00,VWS V14.01,2013-04-20 14:21:00,
2013-04-20 09:27:00,43.0,29.2,29.41,ESE,112,3.1,3.6,58,0.00,,---,0.00,VWS V14.01,2013-04-20 14:27:00,
2013-04-20 09:32:00,43.3,30.8,29.41,WNW,292,3.4,3.4,61,0.00,,---,0.00,VWS V14.01,2013-04-20 14:32:00,
2013-04-20 09:37:00,42.8,29.5,29.41,North,0,5.6,5.6,59,0.00,,---,0.00,VWS V14.01,2013-04-20 14:37:00,
2013-04-20 09:42:00,41.9,27.8,29.41,West,270,2.9,2.9,57,0.00,,---,0.00,VWS V14.01,2013-04-20 14:42:00,
2013-04-20 09:47:00,43.2,29.4,29.41,West,270,2.9,2.9,58,0.00,,---,0.00,VWS V14.01,2013-04-20 14:47:00,
2013-04-20 09:52:00,43.5,29.3,29.41,NW,315,3.1,3.1,57,0.00,,---,0.00,VWS V14.01,2013-04-20 14:52:00,
2013-04-20 09:57:00,44.1,30.2,29.41,North,0,2.9,2.9,58,0.00,,---,0.00,VWS V14.01,2013-04-20 14:57:00,
2013-04-20 10:02:00,43.5,29.3,29.41,NW,315,2.9,2.9,57,0.00,,---,0.00,VWS V14.01,2013-04-20 15:02:00,
2013-04-20 10:07:00,43.5,28.9,29.41,North,0,2.0,2.0,56,0.00,,---,0.00,VWS V14.01,2013-04-20 15:07:00,
2013-04-20 10:13:00,43.5,28.4,29.41,ESE,112,0.9,1.3,55,0.00,,---,0.00,VWS V14.01,2013-04-20 15:13:00,
2013-04-20 10:18:00,43.9,28.8,29.44,North,0,2.9,2.9,55,0.00,,---,0.00,VWS V14.01,2013-04-20 15:18:00,
2013-04-20 10:23:00,43.7,28.6,29.44,SW,225,4.0,4.9,55,0.00,,---,0.00,VWS V14.01,2013-04-20 15:23:00,
2013-04-20 10:28:00,44.2,29.1,29.44,West,270,5.6,5.6,55,0.00,,---,0.00,VWS V14.01,2013-04-20 15:28:00,
2013-04-20 10:33:00,45.3,30.1,29.44,SSW,202,6.5,6.5,55,0.00,,---,0.00,VWS V14.01,2013-04-20 15:33:00,
2013-04-20 10:38:00,46.0,30.3,29.44,SSW,202,5.4,5.8,54,0.00,,---,0.00,VWS V14.01,2013-04-20 15:38:00,
2013-04-20 10:43:00,46.2,30.5,29.44,NNW,338,3.6,3.6,54,0.00,,---,0.00,VWS V14.01,2013-04-20 15:43:00,
2013-04-20 10:48:00,46.0,29.4,29.44,NW,315,3.6,3.6,52,0.00,,---,0.00,VWS V14.01,2013-04-20 15:48:00,
2013-04-20 10:53:00,46.2,30.0,29.44,West,270,7.6,7.6,53,0.00,,---,0.00,VWS V14.01,2013-04-20 15:53:00,
2013-04-20 10:58:00,46.8,30.1,29.44,WSW,248,3.8,3.8,52,0.00,,---,0.00,VWS V14.01,2013-04-20 15:58:00,
2013-04-20 11:03:00,46.9,30.2,29.44,West,270,5.6,5.6,52,0.00,,---,0.00,VWS V14.01,2013-04-20 16:03:00,
2013-04-20 11:08:00,47.5,31.2,29.44,SW,225,5.6,5.6,53,0.00,,---,0.00,VWS V14.01,2013-04-20 16:08:00,
2013-04-20 11:14:00,47.1,30.9,29.44,SW,225,2.2,2.2,53,0.00,,---,0.00,VWS V14.01,2013-04-20 16:14:00,
2013-04-20 11:19:00,47.5,31.7,29.44,WSW,248,0.9,2.9,54,0.00,,---,0.00,VWS V14.01,2013-04-20 16:19:00,
2013-04-20 11:24:00,48.0,32.2,29.44,West,270,6.3,6.3,54,0.00,,---,0.00,VWS V14.01,2013-04-20 16:24:00,
2013-04-20 11:29:00,48.4,32.5,29.44,SSW,202,4.7,4.7,54,0.00,,---,0.00,VWS V14.01,2013-04-20 16:29:00,
2013-04-20 11:34:00,48.2,31.9,29.44,North,0,2.0,2.2,53,0.00,,---,0.00,VWS V14.01,2013-04-20 16:34:00,
2013-04-20 11:39:00,47.7,31.4,29.44,ENE,68,3.1,3.1,53,0.00,,---,0.00,VWS V14.01,2013-04-20 16:39:00,
2013-04-20 11:44:00,47.7,30.4,29.44,NW,315,3.4,6.3,51,0.00,,---,0.00,VWS V14.01,2013-04-20 16:44:00,
2013-04-20 11:49:00,47.7,30.4,29.44,NW,315,3.4,3.4,51,0.00,,---,0.00,VWS V14.01,2013-04-20 16:49:00,
2013-04-20 11:54:00,48.0,31.2,29.44,NW,315,3.8,5.8,52,0.00,,---,0.00,VWS V14.01,2013-04-20 16:54:00,
2013-04-20 11:59:00,47.5,30.8,29.44,North,0,7.2,7.2,52,0.00,,---,0.00,VWS V14.01,2013-04-20 16:59:00,
2013-04-20 12:04:00,47.3,30.1,29.44,North,0,3.8,4.7,51,0.00,,---,0.00,VWS V14.01,2013-04-20 17:04:00,
2013-04-20 12:09:00,47.3,30.1,29.44,NNW,338,5.4,5.4,51,0.00,,---,0.00,VWS V14.01,2013-04-20 17:09:00,
2013-04-20 12:14:00,48.7,31.4,29.44,WSW,248,5.8,5.8,51,0.00,,---,0.00,VWS V14.01,2013-04-20 17:14:00,
2013-04-20 12:19:00,48.7,31.4,29.44,SSW,202,2.2,2.5,51,0.00,,---,0.00,VWS V14.01,2013-04-20 17:19:00,
2013-04-20 12:25:00,48.7,31.4,29.44,West,270,1.6,1.6,51,0.00,,---,0.00,VWS V14.01,2013-04-20 17:25:00,
2013-04-20 12:30:00,48.7,31.0,29.44,North,0,3.8,6.7,50,0.00,,---,0.00,VWS V14.01,2013-04-20 17:30:00,
2013-04-20 12:35:00,48.4,30.1,29.44,NNW,338,1.6,4.0,49,0.00,,---,0.00,VWS V14.01,2013-04-20 17:35:00,
2013-04-20 12:40:00,48.7,31.0,29.44,SSW,202,3.1,3.1,50,0.00,,---,0.00,VWS V14.01,2013-04-20 17:40:00,
2013-04-20 12:45:00,49.8,32.4,29.44,SW,225,3.6,6.5,51,0.00,,---,0.00,VWS V14.01,2013-04-20 17:45:00,
2013-04-20 12:50:00,49.6,32.3,29.44,SW,225,4.3,4.7,51,0.00,,---,0.00,VWS V14.01,2013-04-20 17:50:00,
2013-04-20 12:55:00,50.7,32.3,29.44,WSW,248,5.4,7.8,49,0.00,,---,0.00,VWS V14.01,2013-04-20 17:55:00,
2013-04-20 13:00:00,50.9,32.9,29.44,NW,315,2.5,4.9,50,0.00,,---,0.00,VWS V14.01,2013-04-20 18:00:00,
2013-04-20 13:05:00,50.9,32.9,29.44,West,270,2.7,2.7,50,0.00,,---,0.00,VWS V14.01,2013-04-20 18:05:00,
2013-04-20 13:10:00,51.6,34.1,29.44,SSW,202,7.2,7.2,51,0.00,,---,0.00,VWS V14.01,2013-04-20 18:10:00,
2013-04-20 13:15:00,51.1,32.6,29.44,SW,225,4.3,4.3,49,0.00,,---,0.00,VWS V14.01,2013-04-20 18:15:00,
2013-04-20 13:20:00,50.7,31.8,29.44,WNW,292,4.3,4.3,48,0.00,,---,0.00,VWS V14.01,2013-04-20 18:20:00,
2013-04-20 13:26:00,50.7,32.3,29.44,WNW,292,4.0,6.3,49,0.00,,---,0.00,VWS V14.01,2013-04-20 18:26:00,
2013-04-20 13:31:00,50.0,31.6,29.44,NNW,338,4.7,4.7,49,0.00,,---,0.00,VWS V14.01,2013-04-20 18:31:00,
2013-04-20 13:36:00,50.5,32.1,29.44,South,180,5.4,5.4,49,0.00,,---,0.00,VWS V14.01,2013-04-20 18:36:00,
2013-04-20 13:41:00,51.8,33.8,29.44,West,270,7.4,7.4,50,0.00,,---,0.00,VWS V14.01,2013-04-20 18:41:00,
2013-04-20 13:46:00,51.6,33.1,29.44,SW,225,4.9,4.9,49,0.00,,---,0.00,VWS V14.01,2013-04-20 18:46:00,
2013-04-20 13:51:00,51.6,32.6,29.44,SSW,202,3.1,3.1,48,0.00,,---,0.00,VWS V14.01,2013-04-20 18:51:00,
2013-04-20 13:56:00,54.0,34.2,29.44,West,270,4.7,4.7,47,0.00,,---,0.00,VWS V14.01,2013-04-20 18:56:00,
2013-04-20 14:01:00,56.3,36.9,29.44,SSW,202,7.4,7.4,48,0.00,,---,0.00,VWS V14.01,2013-04-20 19:01:00,
2013-04-20 14:06:00,55.6,35.2,29.44,SW,225,5.8,5.8,46,0.00,,---,0.00,VWS V14.01,2013-04-20 19:06:00,
2013-04-20 14:11:00,54.1,34.9,29.44,NNW,338,5.8,7.8,48,0.00,,---,0.00,VWS V14.01,2013-04-20 19:11:00,
2013-04-20 14:17:00,53.8,34.6,29.44,NW,315,5.4,5.4,48,0.00,,---,0.00,VWS V14.01,2013-04-20 19:17:00,
2013-04-20 14:22:00,53.4,34.8,29.44,West,270,8.5,8.5,49,0.00,,---,0.00,VWS V14.01,2013-04-20 19:22:00,
2013-04-20 14:27:00,52.3,32.7,29.44,WNW,292,5.4,7.4,47,0.00,,---,0.00,VWS V14.01,2013-04-20 19:27:00,
2013-04-20 14:32:00,52.2,32.6,29.44,NW,315,4.7,4.7,47,0.00,,---,0.00,VWS V14.01,2013-04-20 19:32:00,
2013-04-20 14:37:00,52.7,33.0,29.44,NNE,22,6.5,6.5,47,0.00,,---,0.00,VWS V14.01,2013-04-20 19:37:00,
2013-04-20 14:42:00,52.2,32.6,29.44,NW,315,2.9,4.3,47,0.00,,---,0.00,VWS V14.01,2013-04-20 19:42:00,
2013-04-20 14:47:00,52.9,33.2,29.44,SW,225,3.4,3.4,47,0.00,,---,0.00,VWS V14.01,2013-04-20 19:47:00,
2013-04-20 14:52:00,52.9,33.2,29.44,NNW,338,5.4,5.4,47,0.00,,---,0.00,VWS V14.01,2013-04-20 19:52:00,
2013-04-20 14:57:00,52.9,33.2,29.44,ENE,68,1.1,1.1,47,0.00,,---,0.00,VWS V14.01,2013-04-20 19:57:00,
2013-04-20 15:02:00,52.3,32.2,29.44,NNW,338,2.9,3.8,46,0.00,,---,0.00,VWS V14.01,2013-04-20 20:02:00,
2013-04-20 15:07:00,52.9,33.2,29.44,NNE,22,0.0,3.8,47,0.00,,---,0.00,VWS V14.01,2013-04-20 20:07:00,
2013-04-20 15:12:00,52.5,32.9,29.44,WNW,292,4.3,4.3,47,0.00,,---,0.00,VWS V14.01,2013-04-20 20:12:00,
2013-04-20 15:17:00,52.5,32.9,29.44,NNE,22,2.9,2.9,47,0.00,,---,0.00,VWS V14.01,2013-04-20 20:17:00,
2013-04-20 15:22:00,52.0,31.9,29.44,East,90,3.6,3.6,46,0.00,,---,0.00,VWS V14.01,2013-04-20 20:22:00,
2013-04-20 15:28:00,52.2,32.6,29.44,ENE,68,3.1,3.8,47,0.00,,---,0.00,VWS V14.01,2013-04-20 20:28:00,
2013-04-20 15:33:00,51.3,31.7,29.44,West,270,3.8,3.8,47,0.00,,---,0.00,VWS V14.01,2013-04-20 20:33:00,
2013-04-20 15:38:00,50.9,31.4,29.44,NW,315,2.7,2.7,47,0.00,,---,0.00,VWS V14.01,2013-04-20 20:38:00,
2013-04-20 15:43:00,50.5,30.5,29.44,NW,315,4.0,4.0,46,0.00,,---,0.00,VWS V14.01,2013-04-20 20:43:00,
2013-04-20 15:48:00,50.5,30.5,29.44,North,0,2.7,4.3,46,0.00,,---,0.00,VWS V14.01,2013-04-20 20:48:00,
2013-04-20 15:53:00,51.1,31.0,29.44,NE,45,3.1,3.1,46,0.00,,---,0.00,VWS V14.01,2013-04-20 20:53:00,
2013-04-20 15:58:00,51.1,31.6,29.44,West,270,6.3,6.3,47,0.00,,---,0.00,VWS V14.01,2013-04-20 20:58:00,
2013-04-20 16:03:00,50.7,30.7,29.44,West,270,3.8,3.8,46,0.00,,---,0.00,VWS V14.01,2013-04-20 21:03:00,
2013-04-20 16:08:00,50.7,30.7,29.44,NE,45,2.7,2.7,46,0.00,,---,0.00,VWS V14.01,2013-04-20 21:08:00,
2013-04-20 16:13:00,50.2,29.7,29.44,NNW,338,4.3,4.3,45,0.00,,---,0.00,VWS V14.01,2013-04-20 21:13:00,
2013-04-20 16:19:00,50.0,30.0,29.44,WSW,248,0.0,2.0,46,0.00,,---,0.00,VWS V14.01,2013-04-20 21:19:00,
2013-04-20 16:24:00,50.2,30.2,29.44,WNW,292,3.6,3.6,46,0.00,,---,0.00,VWS V14.01,2013-04-20 21:24:00,
2013-04-20 16:29:00,50.0,30.0,29.44,NW,315,2.7,2.7,46,0.00,,---,0.00,VWS V14.01,2013-04-20 21:29:00,
2013-04-20 16:34:00,49.3,28.9,29.44,SSE,158,2.5,4.9,45,0.00,,---,0.00,VWS V14.01,2013-04-20 21:34:00,
2013-04-20 16:39:00,49.1,28.7,29.44,ENE,68,2.0,3.1,45,0.00,,---,0.00,VWS V14.01,2013-04-20 21:39:00,
2013-04-20 16:44:00,49.1,28.7,29.44,NE,45,3.6,3.6,45,0.00,,---,0.00,VWS V14.01,2013-04-20 21:44:00,
2013-04-20 16:49:00,49.3,28.9,29.44,East,90,1.6,1.6,45,0.00,,---,0.00,VWS V14.01,2013-04-20 21:49:00,
2013-04-20 16:54:00,49.8,29.4,29.44,NNW,338,2.9,2.9,45,0.00,,---,0.00,VWS V14.01,2013-04-20 21:54:00,
2013-04-20 16:59:00,50.2,29.7,29.44,NW,315,2.5,4.3,45,0.00,,---,0.00,VWS V14.01,2013-04-20 21:59:00,
2013-04-20 17:04:00,50.2,29.7,29.44,NNE,22,4.0,4.0,45,0.00,,---,0.00,VWS V14.01,2013-04-20 22:04:00,
2013-04-20 17:09:00,50.0,29.5,29.44,West,270,2.9,2.9,45,0.00,,---,0.00,VWS V14.01,2013-04-20 22:09:00,
2013-04-20 17:14:00,49.8,29.4,29.44,NNE,22,3.1,3.1,45,0.00,,---,0.00,VWS V14.01,2013-04-20 22:14:00,
2013-04-20 17:19:00,49.6,29.2,29.44,NNE,22,2.7,2.7,45,0.00,,---,0.00,VWS V14.01,2013-04-20 22:19:00,
2013-04-20 17:24:00,49.8,28.8,29.44,East,90,3.4,3.4,44,0.00,,---,0.00,VWS V14.01,2013-04-20 22:24:00,
2013-04-20 17:29:00,49.8,28.8,29.44,NW,315,2.5,2.5,44,0.00,,---,0.00,VWS V14.01,2013-04-20 22:29:00,
2013-04-20 17:34:00,49.8,29.4,29.44,NW,315,0.9,0.9,45,0.00,,---,0.00,VWS V14.01,2013-04-20 22:34:00,
2013-04-20 17:39:00,49.8,29.4,29.44,WNW,292,3.4,3.4,45,0.00,,---,0.00,VWS V14.01,2013-04-20 22:39:00,
2013-04-20 17:45:00,50.0,29.0,29.44,West,270,4.3,4.3,44,0.00,,---,0.00,VWS V14.01,2013-04-20 22:45:00,
2013-04-20 17:50:00,50.0,29.0,29.44,ENE,68,1.6,2.0,44,0.00,,---,0.00,VWS V14.01,2013-04-20 22:50:00,
2013-04-20 17:55:00,50.0,29.0,29.44,SW,225,2.0,2.0,44,0.00,,---,0.00,VWS V14.01,2013-04-20 22:55:00,
2013-04-20 18:00:00,50.0,29.0,29.44,WSW,248,2.2,4.0,44,0.00,,---,0.00,VWS V14.01,2013-04-20 23:00:00,
2013-04-20 18:05:00,50.0,29.0,29.44,West,270,2.2,3.8,44,0.00,,---,0.00,VWS V14.01,2013-04-20 23:05:00,
2013-04-20 18:10:00,50.0,29.5,29.44,NNW,338,3.6,3.6,45,0.00,,---,0.00,VWS V14.01,2013-04-20 23:10:00,
2013-04-20 18:15:00,49.5,29.0,29.44,ENE,68,5.6,5.6,45,0.00,,---,0.00,VWS V14.01,2013-04-20 23:15:00,
2013-04-20 18:20:00,49.1,28.7,29.44,North,0,2.7,2.7,45,0.00,,---,0.00,VWS V14.01,2013-04-20 23:20:00,
2013-04-20 18:25:00,48.9,28.0,29.44,East,90,3.1,3.1,44,0.00,,---,0.00,VWS V14.01,2013-04-20 23:25:00,
2013-04-20 18:30:00,48.7,27.8,29.44,NE,45,3.4,3.4,44,0.00,,---,0.00,VWS V14.01,2013-04-20 23:30:00,
2013-04-20 18:35:00,48.7,27.8,29.44,NE,45,0.0,0.0,44,0.00,,---,0.00,VWS V14.01,2013-04-20 23:35:00,
2013-04-20 18:40:00,48.7,27.8,29.44,East,90,5.6,5.6,44,0.00,,---,0.00,VWS V14.01,2013-04-20 23:40:00,
2013-04-20 18:45:00,48.6,27.6,29.44,East,90,2.2,2.2,44,0.00,,---,0.00,VWS V14.01,2013-04-20 23:45:00,
2013-04-20 18:50:00,48.6,27.6,29.44,ENE,68,2.5,2.5,44,0.00,,---,0.00,VWS V14.01,2013-04-20 23:50:00,
2013-04-20 18:56:00,48.2,27.3,29.44,NNE,22,0.0,0.0,44,0.00,,---,0.00,VWS V14.01,2013-04-20 23:56:00,
2013-04-20 19:01:00,48.0,27.7,29.47,NE,45,1.3,2.7,45,0.00,,---,0.00,VWS V14.01,2013-04-21 00:01:00,
2013-04-20 19:06:00,47.7,26.8,29.47,North,0,1.6,3.6,44,0.00,,---,0.00,VWS V14.01,2013-04-21 00:06:00,
2013-04-20 19:11:00,47.7,26.8,29.47,ENE,68,3.4,3.4,44,0.00,,---,0.00,VWS V14.01,2013-04-21 00:11:00,
2013-04-20 19:16:00,47.7,26.8,29.47,ENE,68,3.6,3.6,44,0.00,,---,0.00,VWS V14.01,2013-04-21 00:16:00,
2013-04-20 19:21:00,47.1,26.9,29.47,NE,45,2.5,2.5,45,0.00,,---,0.00,VWS V14.01,2013-04-21 00:21:00,
2013-04-20 19:26:00,46.9,27.3,29.47,ENE,68,2.0,2.0,46,0.00,,---,0.00,VWS V14.01,2013-04-21 00:26:00,
2013-04-20 19:31:00,46.6,26.9,29.47,NE,45,3.1,3.8,46,0.00,,---,0.00,VWS V14.01,2013-04-21 00:31:00,
2013-04-20 19:36:00,46.4,26.2,29.47,ENE,68,4.7,4.7,45,0.00,,---,0.00,VWS V14.01,2013-04-21 00:36:00,
2013-04-20 19:41:00,46.0,26.4,29.47,East,90,4.7,4.7,46,0.00,,---,0.00,VWS V14.01,2013-04-21 00:41:00,
2013-04-20 19:46:00,45.7,26.1,29.47,East,90,4.7,4.7,46,0.00,,---,0.00,VWS V14.01,2013-04-21 00:46:00,
2013-04-20 19:51:00,45.5,25.9,29.47,East,90,3.1,3.1,46,0.00,,---,0.00,VWS V14.01,2013-04-21 00:51:00,
2013-04-20 19:56:00,45.3,25.8,29.47,ENE,68,2.7,2.7,46,0.00,,---,0.00,VWS V14.01,2013-04-21 00:56:00,
2013-04-20 20:01:00,45.1,26.1,29.47,NE,45,1.6,1.6,47,0.00,,---,0.00,VWS V14.01,2013-04-21 01:01:00,
2013-04-20 20:07:00,44.8,25.8,29.47,ENE,68,2.5,2.5,47,0.00,,---,0.00,VWS V14.01,2013-04-21 01:07:00,
2013-04-20 20:12:00,44.8,25.8,29.47,East,90,2.5,2.5,47,0.00,,---,0.00,VWS V14.01,2013-04-21 01:12:00,
2013-04-20 20:17:00,44.6,25.6,29.50,ENE,68,1.6,1.6,47,0.00,,---,0.00,VWS V14.01,2013-04-21 01:17:00,
2013-04-20 20:22:00,44.6,25.6,29.50,East,90,1.3,1.3,47,0.00,,---,0.00,VWS V14.01,2013-04-21 01:22:00,
2013-04-20 20:27:00,44.4,26.0,29.50,ENE,68,2.5,2.5,48,0.00,,---,0.00,VWS V14.01,2013-04-21 01:27:00,
2013-04-20 20:32:00,43.7,25.3,29.50,East,90,2.5,2.5,48,0.00,,---,0.00,VWS V14.01,2013-04-21 01:32:00,
2013-04-20 20:37:00,43.5,25.1,29.50,ENE,68,2.5,2.5,48,0.00,,---,0.00,VWS V14.01,2013-04-21 01:37:00,
2013-04-20 20:42:00,43.5,25.1,29.50,East,90,4.0,4.0,48,0.00,,---,0.00,VWS V14.01,2013-04-21 01:42:00,
2013-04-20 20:47:00,43.3,25.5,29.50,East,90,3.4,4.7,49,0.00,,---,0.00,VWS V14.01,2013-04-21 01:47:00,
2013-04-20 20:52:00,43.0,25.1,29.50,ENE,68,3.6,4.9,49,0.00,,---,0.00,VWS V14.01,2013-04-21 01:52:00,
2013-04-20 20:57:00,42.8,25.0,29.50,ENE,68,2.5,2.5,49,0.00,,---,0.00,VWS V14.01,2013-04-21 01:57:00,
2013-04-20 21:02:00,42.8,25.0,29.53,ENE,68,2.9,2.9,49,0.00,,---,0.00,VWS V14.01,2013-04-21 02:02:00,
2013-04-20 21:07:00,42.6,25.3,29.53,East,90,4.0,4.3,50,0.00,,---,0.00,VWS V14.01,2013-04-21 02:07:00,
2013-04-20 21:12:00,42.4,25.1,29.53,East,90,2.9,4.0,50,0.00,,---,0.00,VWS V14.01,2013-04-21 02:12:00,
2013-04-20 21:17:00,42.4,25.1,29.53,NNE,22,2.0,4.7,50,0.00,,---,0.00,VWS V14.01,2013-04-21 02:17:00,
2013-04-20 21:22:00,42.3,25.0,29.53,East,90,2.9,2.9,50,0.00,,---,0.00,VWS V14.01,2013-04-21 02:22:00,
2013-04-20 21:27:00,42.1,25.3,29.53,East,90,3.6,4.3,51,0.00,,---,0.00,VWS V14.01,2013-04-21 02:27:00,
2013-04-20 21:32:00,41.9,25.1,29.53,NE,45,2.9,2.9,51,0.00,,---,0.00,VWS V14.01,2013-04-21 02:32:00,
2013-04-20 21:38:00,41.7,24.9,29.53,East,90,4.0,4.0,51,0.00,,---,0.00,VWS V14.01,2013-04-21 02:38:00,
2013-04-20 21:43:00,41.5,25.2,29.53,ESE,112,2.5,3.6,52,0.00,,---,0.00,VWS V14.01,2013-04-21 02:43:00,
2013-04-20 21:48:00,41.5,25.2,29.53,ESE,112,4.3,4.3,52,0.00,,---,0.00,VWS V14.01,2013-04-21 02:48:00,
2013-04-20 21:53:00,41.4,25.1,29.53,ENE,68,4.3,4.3,52,0.00,,---,0.00,VWS V14.01,2013-04-21 02:53:00,
2013-04-20 21:58:00,41.2,24.9,29.53,East,90,1.6,2.5,52,0.00,,---,0.00,VWS V14.01,2013-04-21 02:58:00,
2013-04-20 22:03:00,41.0,25.2,29.53,ENE,68,1.3,3.4,53,0.00,,---,0.00,VWS V14.01,2013-04-21 03:03:00,
2013-04-20 22:08:00,40.8,25.0,29.53,East,90,2.7,2.7,53,0.00,,---,0.00,VWS V14.01,2013-04-21 03:08:00,
2013-04-20 22:13:00,40.6,25.3,29.53,ENE,68,2.9,2.9,54,0.00,,---,0.00,VWS V14.01,2013-04-21 03:13:00,
2013-04-20 22:18:00,40.6,25.3,29.53,East,90,2.0,2.9,54,0.00,,---,0.00,VWS V14.01,2013-04-21 03:18:00,
2013-04-20 22:23:00,40.5,25.1,29.53,East,90,1.6,1.6,54,0.00,,---,0.00,VWS V14.01,2013-04-21 03:23:00,
2013-04-20 22:28:00,40.5,25.1,29.53,ESE,112,3.4,3.4,54,0.00,,---,0.00,VWS V14.01,2013-04-21 03:28:00,
2013-04-20 22:33:00,40.3,25.0,29.53,ENE,68,2.0,2.0,54,0.00,,---,0.00,VWS V14.01,2013-04-21 03:33:00,
2013-04-20 22:38:00,40.3,25.0,29.53,ENE,68,2.7,2.9,54,0.00,,---,0.00,VWS V14.01,2013-04-21 03:38:00,
2013-04-20 22:43:00,40.3,25.0,29.53,ENE,68,2.7,2.7,54,0.00,,---,0.00,VWS V14.01,2013-04-21 03:43:00,
2013-04-20 22:48:00,40.1,25.2,29.53,ENE,68,3.6,3.6,55,0.00,,---,0.00,VWS V14.01,2013-04-21 03:48:00,
2013-04-20 22:53:00,39.9,25.1,29.53,ENE,68,3.1,3.1,55,0.00,,---,0.00,VWS V14.01,2013-04-21 03:53:00,
2013-04-20 22:58:00,39.9,25.1,29.53,ENE,68,2.9,2.9,55,0.00,,---,0.00,VWS V14.01,2013-04-21 03:58:00,
2013-04-20 23:01:00,39.7,24.9,29.53,ENE,68,2.7,2.9,55,0.00,,---,0.00,VWS V14.01,2013-04-21 04:01:00,
2013-04-20 23:02:00,39.7,24.9,29.53,NE,45,1.3,2.7,55,0.00,,---,0.00,VWS V14.01,2013-04-21 04:02:00,
2013-04-20 23:07:00,39.7,24.9,29.53,East,90,3.4,3.4,55,0.00,,---,0.00,VWS V14.01,2013-04-21 04:07:00,
2013-04-20 23:12:00,39.6,24.7,29.53,East,90,2.9,3.8,55,0.00,,---,0.00,VWS V14.01,2013-04-21 04:12:00,
2013-04-20 23:17:00,39.6,25.2,29.53,ENE,68,2.0,3.1,56,0.00,,---,0.00,VWS V14.01,2013-04-21 04:17:00,
2013-04-20 23:22:00,39.4,25.0,29.53,ENE,68,3.8,3.8,56,0.00,,---,0.00,VWS V14.01,2013-04-21 04:22:00,
2013-04-20 23:27:00,39.2,24.8,29.53,ENE,68,1.6,1.6,56,0.00,,---,0.00,VWS V14.01,2013-04-21 04:27:00,
2013-04-20 23:32:00,39.2,24.8,29.53,NE,45,2.9,5.4,56,0.00,,---,0.00,VWS V14.01,2013-04-21 04:32:00,
2013-04-20 23:37:00,39.2,24.8,29.53,East,90,2.0,2.5,56,0.00,,---,0.00,VWS V14.01,2013-04-21 04:37:00,
2013-04-20 23:43:00,39.2,24.8,29.53,ESE,112,3.4,3.4,56,0.00,,---,0.00,VWS V14.01,2013-04-21 04:43:00,
2013-04-20 23:48:00,39.2,24.8,29.53,East,90,2.9,2.9,56,0.00,,---,0.00,VWS V14.01,2013-04-21 04:48:00,
2013-04-20 23:53:00,39.0,25.1,29.53,East,90,3.1,3.1,57,0.00,,---,0.00,VWS V14.01,2013-04-21 04:53:00,
2013-04-20 23:58:00,39.0,25.1,29.53,ENE,68,3.6,3.6,57,0.00,,---,0.00,VWS V14.01,2013-04-21 04:58:00,